createdAt,value
2018-11-14T00:00:09.429Z,7.75
2018-11-14T00:01:18.060Z,7.78
2018-11-14T00:02:26.703Z,7.69
2018-11-14T00:03:35.338Z,7.7
2018-11-14T00:04:43.984Z,7.75
2018-11-14T00:05:52.629Z,7.75
2018-11-14T00:07:01.273Z,7.78
2018-11-14T00:08:09.908Z,7.74
2018-11-14T00:09:18.558Z,7.67
2018-11-14T00:10:27.184Z,7.72
2018-11-14T00:11:35.824Z,7.67
2018-11-14T00:12:44.736Z,7.74
2018-11-14T00:13:53.381Z,7.75
2018-11-14T00:15:02.020Z,7.77
2018-11-14T00:16:10.649Z,7.72
2018-11-14T00:17:19.280Z,7.78
2018-11-14T00:18:27.917Z,7.69
2018-11-14T00:19:37.244Z,7.69
2018-11-14T00:20:46.139Z,7.69
2018-11-14T00:21:55.043Z,7.62
2018-11-14T00:23:03.673Z,7.7
2018-11-14T00:24:12.325Z,7.67
2018-11-14T00:25:20.963Z,7.58
2018-11-14T00:26:29.605Z,7.67
2018-11-14T00:27:38.497Z,7.67
2018-11-14T00:28:47.145Z,7.67
2018-11-14T00:29:55.780Z,7.59
2018-11-14T00:31:04.685Z,7.61
2018-11-14T00:32:13.320Z,7.5
2018-11-14T00:33:21.963Z,7.55
2018-11-14T00:34:30.640Z,7.62
2018-11-14T00:35:39.365Z,7.46
2018-11-14T00:36:47.885Z,7.61
2018-11-14T00:37:56.533Z,7.48
2018-11-14T00:39:05.438Z,7.46
2018-11-14T00:40:14.080Z,7.43
2018-11-14T00:41:23.015Z,7.46
2018-11-14T00:42:31.648Z,7.43
2018-11-14T00:43:40.288Z,7.41
2018-11-14T00:44:48.928Z,7.44
2018-11-14T00:45:57.572Z,7.47
2018-11-14T00:47:06.205Z,7.41
2018-11-14T00:48:14.845Z,7.47
2018-11-14T00:49:23.752Z,7.46
2018-11-14T00:50:32.392Z,7.47
2018-11-14T00:51:41.030Z,7.4
2018-11-14T00:52:49.672Z,7.39
2018-11-14T00:53:58.578Z,7.36
2018-11-14T00:55:07.475Z,7.4
2018-11-14T00:56:16.646Z,7.43
2018-11-14T00:57:25.283Z,7.37
2018-11-14T00:58:33.918Z,7.37
2018-11-14T00:59:42.817Z,7.25
2018-11-14T01:00:51.725Z,7.29
2018-11-14T01:02:01.253Z,7.36
2018-11-14T01:03:10.714Z,7.28
2018-11-14T01:04:20.347Z,7.26
2018-11-14T01:05:29.594Z,7.31
2018-11-14T01:06:38.231Z,7.31
2018-11-14T01:07:47.141Z,7.28
2018-11-14T01:08:55.771Z,7.32
2018-11-14T01:10:04.414Z,7.31
2018-11-14T01:11:13.051Z,7.29
2018-11-14T01:12:21.699Z,7.32
2018-11-14T01:13:30.340Z,7.28
2018-11-14T01:14:39.238Z,7.25
2018-11-14T01:15:47.877Z,7.28
2018-11-14T01:16:56.794Z,7.37
2018-11-14T01:18:05.984Z,7.32
2018-11-14T01:19:14.355Z,7.37
2018-11-14T01:20:23.259Z,7.31
2018-11-14T01:21:31.945Z,7.32
2018-11-14T01:22:40.844Z,7.32
2018-11-14T01:23:49.480Z,7.31
2018-11-14T01:24:58.124Z,7.32
2018-11-14T01:26:07.019Z,7.32
2018-11-14T01:27:16.785Z,7.31
2018-11-14T01:28:25.398Z,7.23
2018-11-14T01:29:34.042Z,7.28
2018-11-14T01:30:42.671Z,7.26
2018-11-14T01:31:51.306Z,7.23
2018-11-14T01:32:59.948Z,7.23
2018-11-14T01:34:08.589Z,7.23
2018-11-14T01:35:17.932Z,7.29
2018-11-14T01:36:26.832Z,7.23
2018-11-14T01:37:35.472Z,7.23
2018-11-14T01:38:44.110Z,7.28
2018-11-14T01:39:52.751Z,7.26
2018-11-14T01:41:01.450Z,7.22
2018-11-14T01:42:10.026Z,7.23
2018-11-14T01:43:18.666Z,7.28
2018-11-14T01:44:27.300Z,7.23
2018-11-14T01:45:35.944Z,7.23
2018-11-14T01:46:44.580Z,7.21
2018-11-14T01:47:53.219Z,7.29
2018-11-14T01:49:02.119Z,7.18
2018-11-14T01:50:11.021Z,7.23
2018-11-14T01:51:19.661Z,7.23
2018-11-14T01:52:28.299Z,7.22
2018-11-14T01:53:36.938Z,7.23
2018-11-14T01:54:45.838Z,7.18
2018-11-14T01:55:54.738Z,7.23
2018-11-14T01:57:03.636Z,7.18
2018-11-14T01:58:12.272Z,7.15
2018-11-14T01:59:20.906Z,7.21
2018-11-14T02:00:29.546Z,7.21
2018-11-14T02:01:38.180Z,7.19
2018-11-14T02:02:47.085Z,7.26
2018-11-14T02:03:56.240Z,7.21
2018-11-14T02:05:05.142Z,7.18
2018-11-14T02:06:13.779Z,7.14
2018-11-14T02:07:22.679Z,7.18
2018-11-14T02:08:31.323Z,7.18
2018-11-14T02:09:39.956Z,7.05
2018-11-14T02:10:48.857Z,7.1
2018-11-14T02:11:57.495Z,7.05
2018-11-14T02:13:06.405Z,7.08
2018-11-14T02:14:15.308Z,7.15
2018-11-14T02:15:23.943Z,7.05
2018-11-14T02:16:32.582Z,7.05
2018-11-14T02:17:41.223Z,7.05
2018-11-14T02:18:49.857Z,7.15
2018-11-14T02:19:58.494Z,7.08
2018-11-14T02:21:07.130Z,7.19
2018-11-14T02:22:15.772Z,7.15
2018-11-14T02:23:24.409Z,7.11
2018-11-14T02:24:33.044Z,7.07
2018-11-14T02:25:41.679Z,7.11
2018-11-14T02:26:50.315Z,7.11
2018-11-14T02:27:58.959Z,7.08
2018-11-14T02:29:07.592Z,7.1
2018-11-14T02:30:16.511Z,7.08
2018-11-14T02:31:25.427Z,7.08
2018-11-14T02:32:34.070Z,7.1
2018-11-14T02:33:42.708Z,7.11
2018-11-14T02:34:51.414Z,7.1
2018-11-14T02:35:59.980Z,7.08
2018-11-14T02:37:08.630Z,7.07
2018-11-14T02:38:17.258Z,7.08
2018-11-14T02:39:25.908Z,7.07
2018-11-14T02:40:34.805Z,7.04
2018-11-14T02:41:43.708Z,7.05
2018-11-14T02:42:52.889Z,7.05
2018-11-14T02:44:01.526Z,7.13
2018-11-14T02:45:10.167Z,7.04
2018-11-14T02:46:18.799Z,7.14
2018-11-14T02:47:27.443Z,7.07
2018-11-14T02:48:36.347Z,7.07
2018-11-14T02:49:44.998Z,7.08
2018-11-14T02:50:54.156Z,7.03
2018-11-14T02:52:02.800Z,7.05
2018-11-14T02:53:11.433Z,7.04
2018-11-14T02:54:20.346Z,7.08
2018-11-14T02:55:28.973Z,7.01
2018-11-14T02:56:38.151Z,7
2018-11-14T02:57:47.055Z,7.07
2018-11-14T02:58:55.971Z,6.97
2018-11-14T03:00:04.606Z,7.04
2018-11-14T03:01:13.510Z,7.05
2018-11-14T03:02:22.410Z,7
2018-11-14T03:03:31.043Z,7.04
2018-11-14T03:04:39.689Z,7.04
2018-11-14T03:05:48.593Z,7.01
2018-11-14T03:06:57.235Z,7
2018-11-14T03:08:05.875Z,7.05
2018-11-14T03:09:14.525Z,7.05
2018-11-14T03:10:23.157Z,7.04
2018-11-14T03:11:31.797Z,7.04
2018-11-14T03:12:40.429Z,7
2018-11-14T03:13:49.080Z,7.05
2018-11-14T03:14:57.718Z,6.89
2018-11-14T03:16:06.617Z,6.89
2018-11-14T03:17:15.507Z,6.87
2018-11-14T03:18:24.679Z,6.89
2018-11-14T03:19:33.317Z,6.89
2018-11-14T03:20:42.224Z,6.89
2018-11-14T03:21:50.868Z,6.89
2018-11-14T03:22:59.767Z,6.95
2018-11-14T03:24:08.403Z,6.85
2018-11-14T03:25:17.039Z,6.87
2018-11-14T03:26:25.953Z,6.92
2018-11-14T03:27:34.581Z,6.92
2018-11-14T03:28:43.225Z,6.87
2018-11-14T03:29:51.860Z,7.01
2018-11-14T03:31:00.780Z,6.9
2018-11-14T03:32:09.687Z,6.92
2018-11-14T03:33:18.337Z,6.87
2018-11-14T03:34:27.243Z,6.95
2018-11-14T03:35:35.889Z,6.9
2018-11-14T03:36:44.531Z,6.86
2018-11-14T03:37:53.683Z,6.95
2018-11-14T03:39:02.317Z,6.96
2018-11-14T03:40:10.960Z,6.77
2018-11-14T03:41:19.609Z,6.97
2018-11-14T03:42:28.244Z,6.77
2018-11-14T03:43:36.888Z,6.95
2018-11-14T03:44:45.532Z,6.77
2018-11-14T03:45:54.437Z,6.89
2018-11-14T03:47:03.079Z,6.77
2018-11-14T03:48:11.986Z,6.85
2018-11-14T03:49:20.876Z,6.83
2018-11-14T03:50:29.529Z,6.74
2018-11-14T03:51:38.165Z,6.8
2018-11-14T03:52:47.065Z,6.74
2018-11-14T03:53:55.695Z,6.83
2018-11-14T03:55:04.600Z,6.83
2018-11-14T03:56:13.509Z,6.75
2018-11-14T03:57:22.154Z,6.78
2018-11-14T03:58:30.899Z,6.8
2018-11-14T03:59:39.959Z,6.74
2018-11-14T04:00:48.603Z,6.77
2018-11-14T04:01:57.246Z,6.72
2018-11-14T04:03:05.896Z,6.7
2018-11-14T04:04:14.792Z,6.67
2018-11-14T04:05:23.501Z,6.65
2018-11-14T04:06:32.066Z,6.71
2018-11-14T04:07:40.991Z,6.71
2018-11-14T04:08:50.139Z,6.71
2018-11-14T04:09:58.780Z,6.74
2018-11-14T04:11:07.414Z,6.59
2018-11-14T04:12:16.061Z,6.64
2018-11-14T04:13:24.966Z,6.59
2018-11-14T04:14:33.865Z,6.59
2018-11-14T04:15:42.502Z,6.57
2018-11-14T04:16:51.138Z,6.67
2018-11-14T04:18:00.053Z,6.65
2018-11-14T04:19:09.209Z,6.59
2018-11-14T04:20:17.854Z,6.6
2018-11-14T04:21:26.480Z,6.59
2018-11-14T04:22:35.410Z,6.59
2018-11-14T04:23:44.317Z,6.59
2018-11-14T04:24:52.952Z,6.6
2018-11-14T04:26:01.580Z,6.56
2018-11-14T04:27:10.229Z,6.52
2018-11-14T04:28:18.862Z,6.65
2018-11-14T04:29:27.497Z,6.49
2018-11-14T04:30:36.128Z,6.52
2018-11-14T04:31:44.767Z,6.57
2018-11-14T04:32:53.407Z,6.54
2018-11-14T04:34:02.060Z,6.53
2018-11-14T04:35:10.984Z,6.53
2018-11-14T04:36:19.606Z,6.53
2018-11-14T04:37:28.526Z,6.54
2018-11-14T04:38:37.435Z,6.54
2018-11-14T04:39:46.335Z,6.52
2018-11-14T04:40:55.236Z,6.52
2018-11-14T04:42:03.876Z,6.41
2018-11-14T04:43:12.787Z,6.47
2018-11-14T04:44:21.701Z,6.44
2018-11-14T04:45:30.598Z,6.44
2018-11-14T04:46:39.235Z,6.47
2018-11-14T04:47:47.937Z,6.41
2018-11-14T04:48:56.516Z,6.41
2018-11-14T04:50:05.153Z,6.43
2018-11-14T04:51:13.788Z,6.35
2018-11-14T04:52:22.686Z,6.35
2018-11-14T04:53:31.323Z,6.44
2018-11-14T04:54:40.235Z,6.29
2018-11-14T04:55:48.879Z,6.38
2018-11-14T04:56:58.051Z,6.35
2018-11-14T04:58:06.687Z,6.38
2018-11-14T04:59:15.598Z,6.38
2018-11-14T05:00:24.503Z,6.35
2018-11-14T05:01:33.140Z,6.35
2018-11-14T05:02:41.869Z,6.41
2018-11-14T05:03:50.418Z,6.38
2018-11-14T05:04:59.053Z,6.43
2018-11-14T05:06:07.694Z,6.38
2018-11-14T05:07:16.329Z,6.44
2018-11-14T05:08:24.970Z,6.36
2018-11-14T05:09:33.609Z,6.43
2018-11-14T05:10:42.246Z,6.43
2018-11-14T05:11:50.885Z,6.39
2018-11-14T05:12:59.622Z,6.32
2018-11-14T05:14:08.812Z,6.41
2018-11-14T05:15:17.715Z,6.32
2018-11-14T05:16:26.362Z,6.39
2018-11-14T05:17:34.994Z,6.49
2018-11-14T05:18:43.631Z,6.46
2018-11-14T05:19:52.269Z,6.34
2018-11-14T05:21:01.181Z,6.49
2018-11-14T05:22:10.078Z,6.41
2018-11-14T05:23:18.723Z,6.43
2018-11-14T05:24:27.379Z,6.47
2018-11-14T05:25:36.029Z,6.47
2018-11-14T05:26:45.202Z,6.46
2018-11-14T05:27:54.109Z,6.46
2018-11-14T05:29:02.741Z,6.41
2018-11-14T05:30:11.641Z,6.46
2018-11-14T05:31:20.548Z,6.46
2018-11-14T05:32:29.184Z,6.44
2018-11-14T05:33:37.822Z,6.43
2018-11-14T05:34:46.453Z,6.44
2018-11-14T05:35:55.094Z,6.5
2018-11-14T05:37:03.730Z,6.44
2018-11-14T05:38:12.367Z,6.44
2018-11-14T05:39:21.017Z,6.53
2018-11-14T05:40:29.651Z,6.44
2018-11-14T05:41:38.289Z,6.52
2018-11-14T05:42:47.187Z,6.44
2018-11-14T05:43:56.106Z,6.38
2018-11-14T05:45:04.742Z,6.47
2018-11-14T05:46:13.380Z,6.46
2018-11-14T05:47:22.282Z,6.54
2018-11-14T05:48:31.177Z,6.47
2018-11-14T05:49:40.135Z,6.47
2018-11-14T05:50:48.774Z,6.53
2018-11-14T05:51:58.213Z,6.54
2018-11-14T05:53:06.867Z,6.49
2018-11-14T05:54:15.509Z,6.44
2018-11-14T05:55:24.147Z,6.57
2018-11-14T05:56:32.786Z,6.49
2018-11-14T05:57:41.680Z,6.5
2018-11-14T05:58:50.324Z,6.59
2018-11-14T05:59:58.958Z,6.5
2018-11-14T06:01:07.600Z,6.52
2018-11-14T06:02:16.237Z,6.41
2018-11-14T06:03:24.871Z,6.49
2018-11-14T06:04:33.510Z,6.44
2018-11-14T06:05:42.679Z,6.46
2018-11-14T06:06:51.325Z,6.46
2018-11-14T06:07:59.960Z,6.47
2018-11-14T06:09:08.863Z,6.43
2018-11-14T06:10:17.498Z,6.5
2018-11-14T06:11:26.139Z,6.59
2018-11-14T06:12:35.037Z,6.49
2018-11-14T06:13:43.675Z,6.47
2018-11-14T06:14:52.309Z,6.47
2018-11-14T06:16:00.957Z,6.53
2018-11-14T06:17:09.595Z,6.46
2018-11-14T06:18:18.236Z,6.53
2018-11-14T06:19:26.871Z,6.49
2018-11-14T06:20:35.515Z,6.52
2018-11-14T06:21:44.171Z,6.49
2018-11-14T06:22:53.141Z,6.46
2018-11-14T06:24:01.784Z,6.52
2018-11-14T06:25:10.416Z,6.44
2018-11-14T06:26:19.057Z,6.52
2018-11-14T06:27:27.699Z,6.5
2018-11-14T06:28:36.338Z,6.49
2018-11-14T06:29:44.995Z,6.57
2018-11-14T06:30:53.607Z,6.43
2018-11-14T06:32:02.247Z,6.44
2018-11-14T06:33:10.886Z,6.39
2018-11-14T06:34:19.518Z,6.43
2018-11-14T06:35:28.426Z,6.38
2018-11-14T06:36:37.067Z,6.44
2018-11-14T06:37:45.704Z,6.41
2018-11-14T06:38:54.644Z,6.39
2018-11-14T06:40:03.556Z,6.39
2018-11-14T06:41:12.605Z,6.46
2018-11-14T06:42:21.278Z,6.38
2018-11-14T06:43:29.914Z,6.46
2018-11-14T06:44:38.543Z,6.38
2018-11-14T06:45:47.562Z,6.39
2018-11-14T06:46:56.243Z,6.36
2018-11-14T06:48:05.460Z,6.43
2018-11-14T06:49:14.713Z,6.38
2018-11-14T06:50:23.354Z,6.39
2018-11-14T06:51:32.166Z,6.31
2018-11-14T06:52:40.931Z,6.36
2018-11-14T06:53:50.010Z,6.32
2018-11-14T06:54:59.048Z,6.35
2018-11-14T06:56:08.329Z,6.36
2018-11-14T06:57:17.317Z,6.44
2018-11-14T06:58:26.668Z,6.43
2018-11-14T06:59:35.360Z,6.38
2018-11-14T07:00:43.940Z,6.38
2018-11-14T07:01:52.575Z,6.39
2018-11-14T07:03:01.223Z,6.39
2018-11-14T07:04:09.856Z,6.39
2018-11-14T07:05:18.613Z,6.38
2018-11-14T07:06:27.125Z,6.41
2018-11-14T07:07:35.770Z,6.43
2018-11-14T07:08:44.406Z,6.43
2018-11-14T07:09:53.050Z,6.46
2018-11-14T07:11:02.295Z,6.46
2018-11-14T07:12:10.920Z,6.54
2018-11-14T07:13:19.820Z,6.46
2018-11-14T07:14:28.459Z,6.53
2018-11-14T07:15:37.091Z,6.53
2018-11-14T07:16:45.732Z,6.47
2018-11-14T07:17:54.692Z,6.56
2018-11-14T07:19:03.289Z,6.5
2018-11-14T07:20:11.929Z,6.56
2018-11-14T07:21:20.555Z,6.53
2018-11-14T07:22:29.465Z,6.54
2018-11-14T07:23:38.113Z,6.62
2018-11-14T07:24:46.874Z,6.6
2018-11-14T07:25:55.375Z,6.53
2018-11-14T07:27:04.017Z,6.57
2018-11-14T07:28:12.651Z,6.56
2018-11-14T07:29:21.298Z,6.56
2018-11-14T07:30:29.928Z,6.64
2018-11-14T07:31:38.567Z,6.74
2018-11-14T07:32:47.204Z,6.6
2018-11-14T07:33:55.846Z,6.74
2018-11-14T07:35:04.480Z,6.65
2018-11-14T07:36:13.385Z,6.65
2018-11-14T07:37:22.020Z,6.7
2018-11-14T07:38:30.926Z,6.72
2018-11-14T07:39:39.874Z,6.82
2018-11-14T07:40:48.510Z,6.82
2018-11-14T07:41:57.148Z,6.85
2018-11-14T07:43:05.783Z,6.87
2018-11-14T07:44:14.431Z,6.9
2018-11-14T07:45:23.330Z,6.9
2018-11-14T07:46:31.969Z,6.89
2018-11-14T07:47:40.865Z,6.9
2018-11-14T07:48:49.550Z,7
2018-11-14T07:49:58.508Z,7.04
2018-11-14T07:51:07.398Z,7.05
2018-11-14T07:52:16.029Z,7.08
2018-11-14T07:53:24.981Z,7.04
2018-11-14T07:54:34.062Z,7.1
2018-11-14T07:55:43.472Z,7.08
2018-11-14T07:56:52.375Z,7.05
2018-11-14T07:58:01.269Z,7.11
2018-11-14T07:59:09.906Z,7.19
2018-11-14T08:00:18.541Z,7.18
2018-11-14T08:01:27.185Z,7.28
2018-11-14T08:02:35.821Z,7.21
2018-11-14T08:03:45.682Z,7.31
2018-11-14T08:04:54.318Z,7.25
2018-11-14T08:06:02.966Z,7.26
2018-11-14T08:07:11.856Z,7.33
2018-11-14T08:08:20.913Z,7.41
2018-11-14T08:09:29.401Z,7.41
2018-11-14T08:10:38.041Z,7.4
2018-11-14T08:11:46.675Z,7.44
2018-11-14T08:12:55.312Z,7.44
2018-11-14T08:14:03.946Z,7.46
2018-11-14T08:15:12.686Z,7.48
2018-11-14T08:16:21.336Z,7.51
2018-11-14T08:17:29.973Z,7.55
2018-11-14T08:18:38.665Z,7.64
2018-11-14T08:19:47.248Z,7.67
2018-11-14T08:20:55.890Z,7.56
2018-11-14T08:22:04.529Z,7.67
2018-11-14T08:23:13.166Z,7.64
2018-11-14T08:24:22.061Z,7.78
2018-11-14T08:25:30.713Z,7.8
2018-11-14T08:26:39.347Z,7.72
2018-11-14T08:27:47.991Z,7.84
2018-11-14T08:28:56.625Z,7.78
2018-11-14T08:30:05.266Z,7.91
2018-11-14T08:31:14.172Z,7.9
2018-11-14T08:32:22.816Z,7.91
2018-11-14T08:33:31.456Z,8.01
2018-11-14T08:34:40.094Z,8.05
2018-11-14T08:35:48.744Z,8.08
2018-11-14T08:36:57.368Z,8.06
2018-11-14T08:38:06.019Z,8.18
2018-11-14T08:39:15.135Z,8.2
2018-11-14T08:40:23.674Z,8.2
2018-11-14T08:41:32.317Z,8.14
2018-11-14T08:42:40.967Z,8.23
2018-11-14T08:43:49.596Z,8.27
2018-11-14T08:44:58.237Z,8.28
2018-11-14T08:46:06.873Z,8.24
2018-11-14T08:47:15.787Z,8.28
2018-11-14T08:48:24.425Z,8.38
2018-11-14T08:49:33.063Z,8.35
2018-11-14T08:50:41.698Z,8.36
2018-11-14T08:51:50.335Z,8.45
2018-11-14T08:52:58.984Z,8.42
2018-11-14T08:54:07.619Z,8.49
2018-11-14T08:55:16.267Z,8.52
2018-11-14T08:56:24.891Z,8.52
2018-11-14T08:57:33.546Z,8.6
2018-11-14T08:58:42.176Z,8.63
2018-11-14T08:59:50.818Z,8.61
2018-11-14T09:00:59.449Z,8.75
2018-11-14T09:02:08.094Z,8.74
2018-11-14T09:03:16.996Z,8.84
2018-11-14T09:04:25.636Z,8.79
2018-11-14T09:05:34.272Z,8.92
2018-11-14T09:06:43.178Z,8.89
2018-11-14T09:07:52.311Z,8.93
2018-11-14T09:09:00.893Z,9.02
2018-11-14T09:10:10.061Z,9.08
2018-11-14T09:11:18.749Z,9.05
2018-11-14T09:12:27.812Z,9.03
2018-11-14T09:13:36.366Z,9.18
2018-11-14T09:14:45.848Z,9.18
2018-11-14T09:15:54.452Z,9.18
2018-11-14T09:17:03.093Z,9.19
2018-11-14T09:18:11.746Z,9.27
2018-11-14T09:19:20.378Z,9.33
2018-11-14T09:20:29.271Z,9.34
2018-11-14T09:21:37.912Z,9.4
2018-11-14T09:22:46.548Z,9.44
2018-11-14T09:23:55.535Z,9.49
2018-11-14T09:25:04.290Z,9.48
2018-11-14T09:26:12.807Z,9.55
2018-11-14T09:27:21.446Z,9.55
2018-11-14T09:28:30.085Z,9.62
2018-11-14T09:29:38.995Z,9.62
2018-11-14T09:30:47.634Z,9.62
2018-11-14T09:31:56.664Z,9.64
2018-11-14T09:33:05.382Z,9.69
2018-11-14T09:34:13.980Z,9.73
2018-11-14T09:35:22.860Z,9.81
2018-11-14T09:36:31.676Z,9.76
2018-11-14T09:37:40.643Z,9.84
2018-11-14T09:38:49.323Z,9.85
2018-11-14T09:39:58.025Z,9.84
2018-11-14T09:41:06.694Z,9.94
2018-11-14T09:42:15.310Z,9.92
2018-11-14T09:43:23.948Z,9.94
2018-11-14T09:44:32.603Z,10.02
2018-11-14T09:45:41.222Z,10.05
2018-11-14T09:46:49.859Z,10.02
2018-11-14T09:47:58.509Z,9.97
2018-11-14T09:49:07.461Z,10.03
2018-11-14T09:50:16.483Z,10
2018-11-14T09:51:25.115Z,10.05
2018-11-14T09:52:33.780Z,10.09
2018-11-14T09:53:42.423Z,10.13
2018-11-14T09:54:51.068Z,10.15
2018-11-14T09:56:00.081Z,10.21
2018-11-14T09:57:09.114Z,10.13
2018-11-14T09:58:17.633Z,10.27
2018-11-14T09:59:26.276Z,10.27
2018-11-14T10:00:35.214Z,10.33
2018-11-14T10:01:43.836Z,10.31
2018-11-14T10:02:52.796Z,10.34
2018-11-14T10:04:01.770Z,10.34
2018-11-14T10:05:10.412Z,10.43
2018-11-14T10:06:19.042Z,10.45
2018-11-14T10:07:27.696Z,10.59
2018-11-14T10:08:36.332Z,10.53
2018-11-14T10:09:44.977Z,10.57
2018-11-14T10:10:53.967Z,10.59
2018-11-14T10:12:03.319Z,10.67
2018-11-14T10:13:12.216Z,10.71
2018-11-14T10:14:21.400Z,10.71
2018-11-14T10:15:30.344Z,10.79
2018-11-14T10:16:39.259Z,10.8
2018-11-14T10:17:48.200Z,10.79
2018-11-14T10:18:56.874Z,10.79
2018-11-14T10:20:05.510Z,10.84
2018-11-14T10:21:14.573Z,10.82
2018-11-14T10:22:23.192Z,10.84
2018-11-14T10:23:31.836Z,10.95
2018-11-14T10:24:40.484Z,10.92
2018-11-14T10:25:49.120Z,10.97
2018-11-14T10:26:57.766Z,10.98
2018-11-14T10:28:06.709Z,10.98
2018-11-14T10:29:15.355Z,11
2018-11-14T10:30:24.304Z,11.08
2018-11-14T10:31:34.002Z,11.07
2018-11-14T10:32:42.547Z,11.12
2018-11-14T10:33:51.193Z,11.12
2018-11-14T10:34:59.837Z,11.16
2018-11-14T10:36:08.478Z,11.2
2018-11-14T10:37:17.114Z,11.22
2018-11-14T10:38:26.021Z,11.23
2018-11-14T10:39:34.662Z,11.23
2018-11-14T10:40:43.323Z,11.25
2018-11-14T10:41:51.951Z,11.26
2018-11-14T10:43:00.740Z,11.27
2018-11-14T10:44:09.235Z,11.31
2018-11-14T10:45:17.876Z,11.45
2018-11-14T10:46:26.786Z,11.43
2018-11-14T10:47:35.426Z,11.43
2018-11-14T10:48:44.066Z,11.45
2018-11-14T10:49:52.705Z,11.44
2018-11-14T10:51:01.687Z,11.48
2018-11-14T10:52:10.252Z,11.52
2018-11-14T10:53:18.900Z,11.55
2018-11-14T10:54:28.063Z,11.53
2018-11-14T10:55:36.970Z,11.59
2018-11-14T10:56:45.610Z,11.56
2018-11-14T10:57:54.250Z,11.56
2018-11-14T10:59:02.920Z,11.6
2018-11-14T11:00:11.560Z,11.67
2018-11-14T11:01:20.205Z,11.73
2018-11-14T11:02:29.109Z,11.71
2018-11-14T11:03:37.753Z,11.71
2018-11-14T11:04:46.396Z,11.71
2018-11-14T11:05:55.308Z,11.76
2018-11-14T11:07:03.949Z,11.77
2018-11-14T11:08:12.699Z,11.88
2018-11-14T11:09:21.497Z,11.88
2018-11-14T11:10:30.209Z,11.93
2018-11-14T11:11:38.848Z,11.96
2018-11-14T11:12:47.490Z,11.99
2018-11-14T11:13:56.199Z,11.97
2018-11-14T11:15:04.849Z,12.03
2018-11-14T11:16:13.504Z,12.08
2018-11-14T11:17:22.154Z,12.1
2018-11-14T11:18:31.064Z,12.11
2018-11-14T11:19:39.827Z,12.17
2018-11-14T11:20:48.472Z,12.21
2018-11-14T11:21:57.109Z,12.21
2018-11-14T11:23:06.049Z,12.2
2018-11-14T11:24:14.682Z,12.17
2018-11-14T11:25:23.595Z,12.17
2018-11-14T11:26:32.509Z,12.2
2018-11-14T11:27:41.141Z,12.23
2018-11-14T11:28:49.792Z,12.33
2018-11-14T11:29:58.699Z,12.28
2018-11-14T11:31:07.613Z,12.23
2018-11-14T11:32:16.248Z,12.39
2018-11-14T11:33:25.156Z,12.37
2018-11-14T11:34:34.066Z,12.43
2018-11-14T11:35:42.711Z,12.36
2018-11-14T11:36:51.700Z,12.5
2018-11-14T11:38:00.338Z,12.37
2018-11-14T11:39:09.245Z,12.51
2018-11-14T11:40:17.888Z,12.4
2018-11-14T11:41:26.540Z,12.39
2018-11-14T11:42:35.169Z,12.53
2018-11-14T11:43:43.822Z,12.54
2018-11-14T11:44:52.987Z,12.5
2018-11-14T11:46:01.975Z,12.48
2018-11-14T11:47:10.611Z,12.54
2018-11-14T11:48:19.252Z,12.58
2018-11-14T11:49:27.901Z,12.62
2018-11-14T11:50:36.546Z,12.63
2018-11-14T11:51:45.187Z,12.65
2018-11-14T11:52:53.824Z,12.62
2018-11-14T11:54:02.464Z,12.61
2018-11-14T11:55:11.102Z,12.68
2018-11-14T11:56:20.021Z,12.65
2018-11-14T11:57:28.720Z,12.72
2018-11-14T11:58:37.305Z,12.68
2018-11-14T11:59:46.181Z,12.73
2018-11-14T12:00:54.956Z,12.75
2018-11-14T12:02:03.597Z,12.81
2018-11-14T12:03:14.254Z,12.87
2018-11-14T12:04:23.171Z,12.86
2018-11-14T12:05:32.090Z,12.81
2018-11-14T12:06:41.003Z,12.88
2018-11-14T12:07:49.639Z,12.81
2018-11-14T12:08:58.638Z,12.95
2018-11-14T12:10:07.544Z,12.95
2018-11-14T12:11:16.195Z,12.99
2018-11-14T12:12:24.839Z,12.98
2018-11-14T12:13:33.547Z,12.99
2018-11-14T12:14:42.124Z,13.01
2018-11-14T12:15:50.770Z,13.05
2018-11-14T12:16:59.419Z,13.01
2018-11-14T12:18:08.335Z,12.98
2018-11-14T12:19:17.154Z,13.01
2018-11-14T12:20:25.827Z,13.05
2018-11-14T12:21:34.487Z,13.12
2018-11-14T12:22:43.690Z,13.03
2018-11-14T12:23:52.738Z,13.09
2018-11-14T12:25:01.390Z,13.06
2018-11-14T12:26:10.104Z,13.13
2018-11-14T12:27:19.332Z,13.02
2018-11-14T12:28:28.004Z,13.02
2018-11-14T12:29:36.846Z,13.08
2018-11-14T12:30:45.559Z,13.19
2018-11-14T12:31:54.123Z,13.17
2018-11-14T12:33:02.772Z,13.16
2018-11-14T12:34:11.418Z,13.13
2018-11-14T12:35:20.216Z,13.16
2018-11-14T12:36:28.704Z,13.12
2018-11-14T12:37:37.360Z,13.09
2018-11-14T12:38:46.342Z,13.16
2018-11-14T12:39:54.900Z,13.11
2018-11-14T12:41:03.538Z,13.16
2018-11-14T12:42:12.185Z,13.09
2018-11-14T12:43:20.825Z,13.13
2018-11-14T12:44:29.473Z,13.11
2018-11-14T12:45:38.710Z,13.02
2018-11-14T12:46:47.541Z,13.12
2018-11-14T12:47:56.191Z,13.08
2018-11-14T12:49:04.837Z,13.01
2018-11-14T12:50:13.482Z,13.02
2018-11-14T12:51:22.121Z,13.12
2018-11-14T12:52:30.774Z,13.12
2018-11-14T12:53:40.183Z,13.12
2018-11-14T12:54:49.146Z,13.08
2018-11-14T12:55:58.006Z,13.03
2018-11-14T12:57:06.697Z,13.12
2018-11-14T12:58:15.340Z,13.2
2018-11-14T12:59:24.184Z,13.02
2018-11-14T13:00:32.736Z,13.01
2018-11-14T13:01:41.382Z,12.98
2018-11-14T13:02:50.023Z,12.99
2018-11-14T13:03:58.936Z,12.81
2018-11-14T13:05:07.578Z,12.86
2018-11-14T13:06:16.486Z,12.88
2018-11-14T13:07:25.125Z,12.83
2018-11-14T13:08:33.768Z,12.81
2018-11-14T13:09:42.415Z,12.75
2018-11-14T13:10:51.057Z,12.73
2018-11-14T13:11:59.699Z,12.65
2018-11-14T13:13:08.339Z,12.58
2018-11-14T13:14:16.985Z,12.63
2018-11-14T13:15:25.630Z,12.57
2018-11-14T13:16:34.272Z,12.48
2018-11-14T13:17:42.910Z,12.55
2018-11-14T13:18:51.557Z,12.51
2018-11-14T13:20:00.197Z,12.51
2018-11-14T13:21:08.840Z,12.58
2018-11-14T13:22:17.481Z,12.54
2018-11-14T13:23:26.123Z,12.57
2018-11-14T13:24:34.766Z,12.62
2018-11-14T13:25:43.407Z,12.69
2018-11-14T13:26:52.047Z,12.68
2018-11-14T13:28:00.740Z,12.7
2018-11-14T13:29:09.339Z,12.78
2018-11-14T13:30:17.982Z,12.87
2018-11-14T13:31:26.880Z,12.88
2018-11-14T13:32:35.535Z,12.95
2018-11-14T13:33:44.436Z,13.01
2018-11-14T13:34:53.080Z,13.12
2018-11-14T13:36:01.718Z,13.02
2018-11-14T13:37:10.366Z,13.11
2018-11-14T13:38:19.006Z,13.12
2018-11-14T13:39:27.647Z,13.17
2018-11-14T13:40:36.284Z,13.17
2018-11-14T13:41:44.928Z,13.19
2018-11-14T13:42:53.569Z,13.16
2018-11-14T13:44:02.492Z,13.16
2018-11-14T13:45:11.136Z,13.09
2018-11-14T13:46:20.038Z,13.16
2018-11-14T13:47:28.948Z,13.03
2018-11-14T13:48:37.857Z,12.99
2018-11-14T13:49:46.767Z,13.05
2018-11-14T13:50:55.930Z,12.95
2018-11-14T13:52:04.982Z,12.95
2018-11-14T13:53:13.625Z,12.83
2018-11-14T13:54:22.272Z,12.81
2018-11-14T13:55:30.914Z,12.86
2018-11-14T13:56:39.557Z,12.81
2018-11-14T13:57:48.197Z,12.83
2018-11-14T13:58:56.845Z,12.8
2018-11-14T14:00:05.486Z,12.86
2018-11-14T14:01:14.604Z,12.81
2018-11-14T14:02:23.186Z,12.72
2018-11-14T14:03:31.824Z,12.8
2018-11-14T14:04:40.736Z,12.7
2018-11-14T14:05:49.446Z,12.63
2018-11-14T14:06:58.209Z,12.62
2018-11-14T14:08:06.899Z,12.61
2018-11-14T14:09:15.663Z,12.57
2018-11-14T14:10:24.344Z,12.5
2018-11-14T14:11:33.014Z,12.54
2018-11-14T14:12:41.853Z,12.58
2018-11-14T14:13:51.034Z,12.5
2018-11-14T14:14:59.680Z,12.57
2018-11-14T14:16:08.339Z,12.53
2018-11-14T14:17:17.522Z,12.51
2018-11-14T14:18:26.165Z,12.53
2018-11-14T14:19:35.075Z,12.4
2018-11-14T14:20:43.724Z,12.45
2018-11-14T14:21:52.634Z,12.5
2018-11-14T14:23:01.271Z,12.44
2018-11-14T14:24:10.189Z,12.43
2018-11-14T14:25:18.822Z,12.36
2018-11-14T14:26:28.044Z,12.26
2018-11-14T14:27:36.732Z,12.28
2018-11-14T14:28:45.376Z,12.28
2018-11-14T14:29:54.282Z,12.11
2018-11-14T14:31:03.002Z,12.18
2018-11-14T14:32:11.837Z,12.17
2018-11-14T14:33:20.479Z,12.15
2018-11-14T14:34:29.119Z,12.15
2018-11-14T14:35:37.769Z,12.1
2018-11-14T14:36:46.408Z,12
2018-11-14T14:37:55.462Z,11.93
2018-11-14T14:39:04.429Z,11.85
2018-11-14T14:40:13.069Z,11.91
2018-11-14T14:41:21.725Z,11.83
2018-11-14T14:42:30.627Z,11.8
2018-11-14T14:43:39.296Z,11.74
2018-11-14T14:44:48.471Z,11.68
2018-11-14T14:45:57.125Z,11.68
2018-11-14T14:47:05.759Z,11.73
2018-11-14T14:48:14.404Z,11.7
2018-11-14T14:49:23.035Z,11.68
2018-11-14T14:50:31.687Z,11.74
2018-11-14T14:51:40.335Z,11.71
2018-11-14T14:52:48.975Z,11.76
2018-11-14T14:53:57.619Z,11.65
2018-11-14T14:55:06.260Z,11.68
2018-11-14T14:56:15.299Z,11.62
2018-11-14T14:57:24.225Z,11.56
2018-11-14T14:58:32.870Z,11.56
2018-11-14T14:59:41.772Z,11.53
2018-11-14T15:00:50.683Z,11.53
2018-11-14T15:01:59.318Z,11.43
2018-11-14T15:03:07.973Z,11.37
2018-11-14T15:04:17.143Z,11.41
2018-11-14T15:05:25.791Z,11.44
2018-11-14T15:06:34.428Z,11.35